Data Viewer
| City | State | Eastern Time | Source | Temp | DewPt | RH | BP | 5 Min Precip | Wind Speed | Wind Dir | 5 Min Wind Max | 5 Min Wind Max Dir |
|---|---|---|---|---|---|---|---|---|---|---|---|---|
| Wilmington (ASOS) | DE | 2026-05-09 18:51 | ASOS | 62 | 51 | 67 | 29.82 | 9 | NE | |||
| Wilmington (ASOS) | DE | 2026-05-10 11:10 | ASOS | 73 | 54 | 50 | 29.93 | 7 | NW | |||
| Wilmington (ASOS) | DE | 2026-05-10 10:20 | ASOS | 70 | 52 | 53 | 29.93 | 3 | W | |||
| Wilmington (ASOS) | DE | 2026-05-10 10:25 | ASOS | 70 | 52 | 53 | 29.93 | 5 | WNW | |||
| Wilmington (ASOS) | DE | 2026-05-10 10:30 | ASOS | 70 | 52 | 53 | 29.93 | 5 | W | |||
| Wilmington (ASOS) | DE | 2026-05-10 10:40 | ASOS | 72 | 52 | 50 | 29.93 | 7 | WNW | |||
| Wilmington (ASOS) | DE | 2026-05-10 10:50 | ASOS | 72 | 52 | 50 | 29.92 | 5 | WSW | |||
| Wilmington (ASOS) | DE | 2026-05-10 10:51 | ASOS | 72 | 53 | 51 | 29.92 | |||||
| Wilmington (ASOS) | DE | 2026-05-10 11:00 | ASOS | 73 | 54 | 50 | 29.92 | 6 | W | |||
| Wilmington (ASOS) | DE | 2026-05-10 11:15 | ASOS | 73 | 54 | 50 | 29.93 | 6 | NW | |||
| Wilmington (ASOS) | DE | 2026-05-10 10:05 | ASOS | 68 | 52 | 56 | 29.93 | 3 | WNW | |||
| Wilmington (ASOS) | DE | 2026-05-10 11:20 | ASOS | 75 | 52 | 44 | 29.93 | 6 | W | |||
| Wilmington (ASOS) | DE | 2026-05-10 11:25 | ASOS | 75 | 54 | 47 | 29.93 | 5 | S | |||
| Wilmington (ASOS) | DE | 2026-05-10 11:30 | ASOS | 75 | 55 | 50 | 29.93 | 5 | SSW | |||
| Wilmington (ASOS) | DE | 2026-05-10 11:35 | ASOS | 75 | 54 | 47 | 29.93 | 6 | SW | |||
| Wilmington (ASOS) | DE | 2026-05-10 11:40 | ASOS | 75 | 54 | 47 | 29.93 | 7 | W | |||
| Wilmington (ASOS) | DE | 2026-05-10 11:45 | ASOS | 75 | 54 | 47 | 29.92 | 5 | W | |||
| Wilmington (ASOS) | DE | 2026-05-10 11:50 | ASOS | 77 | 54 | 44 | 29.92 | 8 | WSW | |||
| Wilmington (ASOS) | DE | 2026-05-10 10:15 | ASOS | 68 | 52 | 56 | 29.93 | 0 | N | |||
| Wilmington (ASOS) | DE | 2026-05-10 10:00 | ASOS | 66 | 52 | 60 | 29.93 | 0 | N | |||
| Wilmington (ASOS) | DE | 2026-05-10 11:55 | ASOS | 77 | 54 | 44 | 29.92 | 7 | W | |||
| Wilmington (ASOS) | DE | 2026-05-10 09:15 | ASOS | 63 | 52 | 68 | 29.93 | 0 | N | |||
| Wilmington (ASOS) | DE | 2026-05-10 08:45 | ASOS | 61 | 52 | 72 | 29.94 | 0 | N | |||
| Wilmington (ASOS) | DE | 2026-05-10 08:50 | ASOS | 61 | 52 | 72 | 29.94 | 0 | N | |||
| Wilmington (ASOS) | DE | 2026-05-10 08:51 | ASOS | 61 | 51 | 70 | 29.94 | 0 | N | |||
| Wilmington (ASOS) | DE | 2026-05-10 08:55 | ASOS | 61 | 52 | 72 | 29.94 | 0 | N | |||
| Wilmington (ASOS) | DE | 2026-05-10 09:00 | ASOS | 61 | 52 | 72 | 29.94 | 0 | N | |||
| Wilmington (ASOS) | DE | 2026-05-10 09:05 | ASOS | 63 | 52 | 68 | 29.93 | 0 | N | |||
| Wilmington (ASOS) | DE | 2026-05-10 09:10 | ASOS | 63 | 52 | 68 | 29.93 | 0 | N | |||
| Wilmington (ASOS) | DE | 2026-05-10 09:20 | ASOS | 63 | 52 | 68 | 29.93 | 0 | N | |||
| Wilmington (ASOS) | DE | 2026-05-10 09:55 | ASOS | 66 | 52 | 60 | 29.93 | 0 | N | |||
| Wilmington (ASOS) | DE | 2026-05-10 09:25 | ASOS | 64 | 52 | 64 | 29.93 | 0 | N | |||
| Wilmington (ASOS) | DE | 2026-05-10 09:30 | ASOS | 64 | 52 | 64 | 29.93 | 0 | N | |||
| Wilmington (ASOS) | DE | 2026-05-10 09:35 | ASOS | 64 | 52 | 64 | 29.93 | 3 | NW | |||
| Wilmington (ASOS) | DE | 2026-05-10 09:40 | ASOS | 64 | 52 | 64 | 29.93 | 0 | N | |||
| Wilmington (ASOS) | DE | 2026-05-10 09:45 | ASOS | 64 | 52 | 64 | 29.93 | 0 | N | |||
| Wilmington (ASOS) | DE | 2026-05-10 09:50 | ASOS | 66 | 52 | 60 | 29.93 | 0 | N | |||
| Wilmington (ASOS) | DE | 2026-05-10 09:51 | ASOS | 66 | 52 | 61 | 29.93 | 0 | N | |||
| Wilmington (ASOS) | DE | 2026-05-10 11:51 | ASOS | 77 | 53 | 43 | 29.92 | 8 | WSW | |||
| Wilmington (ASOS) | DE | 2026-05-10 12:00 | ASOS | 77 | 54 | 44 | 29.92 | 5 | W | |||
| Wilmington (ASOS) | DE | 2026-05-10 08:35 | ASOS | 59 | 50 | 72 | 29.93 | 0 | N | |||
| Wilmington (ASOS) | DE | 2026-05-10 14:30 | ASOS | 81 | 52 | 37 | 29.91 | 10 | NW | |||
| Wilmington (ASOS) | DE | 2026-05-10 13:50 | ASOS | 81 | 7 | SSW | ||||||
| Wilmington (ASOS) | DE | 2026-05-10 13:51 | ASOS | 81 | 7 | SW | ||||||
| Wilmington (ASOS) | DE | 2026-05-10 14:00 | ASOS | 81 | ||||||||
| Wilmington (ASOS) | DE | 2026-05-10 14:05 | ASOS | 81 | ||||||||
| Wilmington (ASOS) | DE | 2026-05-10 14:15 | ASOS | 82 | 7 | WSW | ||||||
| Wilmington (ASOS) | DE | 2026-05-10 14:20 | ASOS | 82 | 7 | WSW | ||||||
| Wilmington (ASOS) | DE | 2026-05-10 14:25 | ASOS | 82 | 7 | WSW | ||||||
| Wilmington (ASOS) | DE | 2026-05-10 14:35 | ASOS | 79 | 52 | 39 | 29.91 | 9 | NW | |||
| Wilmington (ASOS) | DE | 2026-05-10 13:40 | ASOS | 81 | ||||||||
| Wilmington (ASOS) | DE | 2026-05-10 14:40 | ASOS | 77 | 52 | 41 | 29.91 | 7 | NW | |||
| Wilmington (ASOS) | DE | 2026-05-10 14:45 | ASOS | 79 | 52 | 39 | 29.91 | 8 | NW | |||
| Wilmington (ASOS) | DE | 2026-05-10 14:50 | ASOS | 77 | 52 | 41 | 29.91 | 6 | NW | |||
| Wilmington (ASOS) | DE | 2026-05-10 14:51 | ASOS | 77 | 53 | 43 | 29.91 | 6 | NW | |||
| Wilmington (ASOS) | DE | 2026-05-10 14:55 | ASOS | 79 | 54 | 42 | 29.91 | 7 | NW | |||
| Wilmington (ASOS) | DE | 2026-05-10 15:00 | ASOS | 79 | 54 | 42 | 29.91 | 9 | NW | |||
| Wilmington (ASOS) | DE | 2026-05-10 15:05 | ASOS | 77 | 52 | 41 | 29.91 | |||||
| Wilmington (ASOS) | DE | 2026-05-10 13:45 | ASOS | 81 | 5 | SSW | ||||||
| Wilmington (ASOS) | DE | 2026-05-10 13:35 | ASOS | 79 | 5 | S | ||||||
| Wilmington (ASOS) | DE | 2026-05-10 12:05 | ASOS | 77 | 6 | WSW | ||||||
| Wilmington (ASOS) | DE | 2026-05-10 12:45 | ASOS | 79 | 7 | SW | ||||||
| Wilmington (ASOS) | DE | 2026-05-10 12:10 | ASOS | 77 | 8 | SW | ||||||
| Wilmington (ASOS) | DE | 2026-05-10 12:15 | ASOS | 75 | 52 | 44 | 29.92 | 0 | N | |||
| Wilmington (ASOS) | DE | 2026-05-10 12:20 | ASOS | 77 | 54 | 44 | 29.92 | |||||
| Wilmington (ASOS) | DE | 2026-05-10 12:25 | ASOS | 77 | 52 | 41 | 29.92 | 5 | WSW | |||
| Wilmington (ASOS) | DE | 2026-05-10 12:30 | ASOS | 79 | 52 | 39 | 29.92 | 6 | W | |||
| Wilmington (ASOS) | DE | 2026-05-10 12:35 | ASOS | 79 | 52 | 39 | 29.92 | 7 | SSW | |||
| Wilmington (ASOS) | DE | 2026-05-10 12:40 | ASOS | 79 | 52 | 39 | 29.92 | 3 | WSW | |||
| Wilmington (ASOS) | DE | 2026-05-10 12:50 | ASOS | 79 | 9 | SSW | ||||||
| Wilmington (ASOS) | DE | 2026-05-10 13:30 | ASOS | 79 | 8 | WSW | ||||||
| Wilmington (ASOS) | DE | 2026-05-10 12:51 | ASOS | 79 | 51 | 38 | 29.92 | 8 | SSW | |||
| Wilmington (ASOS) | DE | 2026-05-10 12:55 | ASOS | 79 | 9 | SW | ||||||
| Wilmington (ASOS) | DE | 2026-05-10 13:00 | ASOS | 79 | 54 | 42 | 29.92 | 7 | SW | |||
| Wilmington (ASOS) | DE | 2026-05-10 13:05 | ASOS | 81 | 54 | 39 | 29.92 | 9 | SW | |||
| Wilmington (ASOS) | DE | 2026-05-10 13:10 | ASOS | 79 | 52 | 39 | 29.92 | 9 | WSW | |||
| Wilmington (ASOS) | DE | 2026-05-10 13:15 | ASOS | 81 | 48 | 32 | 29.91 | 9 | SW | |||
| Wilmington (ASOS) | DE | 2026-05-10 13:20 | ASOS | 79 | 7 | SSW | ||||||
| Wilmington (ASOS) | DE | 2026-05-10 13:25 | ASOS | 79 | 5 | WSW | ||||||
| Wilmington (ASOS) | DE | 2026-05-10 08:40 | ASOS | 59 | 50 | 72 | 29.93 | 0 | N | |||
| Wilmington (ASOS) | DE | 2026-05-10 08:30 | ASOS | 59 | 52 | 77 | 29.93 | 0 | N | |||
| Wilmington (ASOS) | DE | 2026-05-09 22:05 | ASOS | 55 | 50 | 82 | 29.85 | 0 | N | |||
| Wilmington (ASOS) | DE | 2026-05-10 04:20 | ASOS | 48 | 46 | 93 | 29.86 | 6 | NNW | |||
| Wilmington (ASOS) | DE | 2026-05-10 03:50 | ASOS | 50 | 46 | 87 | 29.85 | 3 | NW | |||
| Wilmington (ASOS) | DE | 2026-05-10 03:51 | ASOS | 50 | 48 | 93 | 29.85 | 3 | NNW | |||
| Wilmington (ASOS) | DE | 2026-05-10 03:55 | ASOS | 50 | 46 | 87 | 29.85 | 6 | NW | |||
| Wilmington (ASOS) | DE | 2026-05-10 04:00 | ASOS | 48 | 46 | 93 | 29.85 | 5 | NW | |||
| Wilmington (ASOS) | DE | 2026-05-10 04:05 | ASOS | 48 | 46 | 93 | 29.85 | 5 | NNW | |||
| Wilmington (ASOS) | DE | 2026-05-10 04:10 | ASOS | 50 | 46 | 87 | 29.85 | 3 | NNW | |||
| Wilmington (ASOS) | DE | 2026-05-10 04:15 | ASOS | 50 | 46 | 87 | 29.86 | 3 | NNW | |||
| Wilmington (ASOS) | DE | 2026-05-10 04:25 | ASOS | 48 | 46 | 93 | 29.86 | 3 | NNW | |||
| Wilmington (ASOS) | DE | 2026-05-10 03:40 | ASOS | 48 | 45 | 87 | 29.85 | 6 | NW | |||
| Wilmington (ASOS) | DE | 2026-05-10 04:30 | ASOS | 48 | 46 | 93 | 29.86 | 6 | NNW | |||
| Wilmington (ASOS) | DE | 2026-05-10 04:35 | ASOS | 48 | 45 | 87 | 29.86 | 6 | NNW | |||
| Wilmington (ASOS) | DE | 2026-05-10 04:40 | ASOS | 48 | 46 | 93 | 29.86 | 6 | NNW | |||
| Wilmington (ASOS) | DE | 2026-05-10 04:45 | ASOS | 48 | 46 | 93 | 29.87 | 10 | NNW | |||
| Wilmington (ASOS) | DE | 2026-05-10 04:51 | ASOS | 51 | 48 | 89 | 29.86 | 7 | N | |||
| Wilmington (ASOS) | DE | 2026-05-10 05:00 | ASOS | 52 | 48 | 87 | 29.87 | 10 | NNW | |||
| Wilmington (ASOS) | DE | 2026-05-10 05:05 | ASOS | 52 | 48 | 87 | 29.87 | 5 | NNW | |||
| Wilmington (ASOS) | DE | 2026-05-10 03:45 | ASOS | 50 | 46 | 87 | 29.85 | 0 | N | |||
| Wilmington (ASOS) | DE | 2026-05-10 03:35 | ASOS | 48 | 46 | 93 | 29.85 | 7 | NNW | |||
| Wilmington (ASOS) | DE | 2026-05-10 05:15 | ASOS | 52 | 48 | 87 | 29.87 | 3 | NNW | |||
| Wilmington (ASOS) | DE | 2026-05-10 02:50 | ASOS | 54 | 50 | 88 | 29.84 | 3 | E | |||
| Wilmington (ASOS) | DE | 2026-05-10 02:15 | ASOS | 55 | 50 | 82 | 29.84 | 5 | E | |||
| Wilmington (ASOS) | DE | 2026-05-10 02:20 | ASOS | 55 | 50 | 82 | 29.84 | 5 | E | |||
| Wilmington (ASOS) | DE | 2026-05-10 02:25 | ASOS | 55 | 50 | 82 | 29.84 | 3 | ENE | |||
| Wilmington (ASOS) | DE | 2026-05-10 02:30 | ASOS | 55 | 50 | 82 | 29.84 | 5 | ENE | |||
| Wilmington (ASOS) | DE | 2026-05-10 02:35 | ASOS | 54 | 50 | 88 | 29.84 | 5 | ENE | |||
| Wilmington (ASOS) | DE | 2026-05-10 02:40 | ASOS | 54 | 50 | 88 | 29.84 | 5 | E | |||
| Wilmington (ASOS) | DE | 2026-05-10 02:45 | ASOS | 54 | 50 | 88 | 29.84 | 3 | E | |||
| Wilmington (ASOS) | DE | 2026-05-10 02:51 | ASOS | 54 | 50 | 86 | 29.83 | 3 | E | |||
| Wilmington (ASOS) | DE | 2026-05-10 03:30 | ASOS | 50 | 46 | 87 | 29.85 | 3 | NNW | |||
| Wilmington (ASOS) | DE | 2026-05-10 02:55 | ASOS | 54 | 50 | 88 | 29.84 | 3 | E | |||
| Wilmington (ASOS) | DE | 2026-05-10 03:00 | ASOS | 54 | 50 | 88 | 29.84 | 3 | ENE | |||
| Wilmington (ASOS) | DE | 2026-05-10 03:05 | ASOS | 54 | 48 | 82 | 29.84 | 3 | ENE | |||
| Wilmington (ASOS) | DE | 2026-05-10 03:10 | ASOS | 54 | 48 | 82 | 29.84 | 3 | ENE | |||
| Wilmington (ASOS) | DE | 2026-05-10 03:15 | ASOS | 54 | 48 | 82 | 29.84 | 3 | ENE | |||
| Wilmington (ASOS) | DE | 2026-05-10 03:20 | ASOS | 54 | 48 | 82 | 29.85 | 3 | NNE | |||
| Wilmington (ASOS) | DE | 2026-05-10 03:25 | ASOS | 52 | 48 | 87 | 29.85 | 3 | NNW | |||
| Wilmington (ASOS) | DE | 2026-05-10 05:10 | ASOS | 52 | 48 | 87 | 29.88 | 9 | NW | |||
| Wilmington (ASOS) | DE | 2026-05-10 05:20 | ASOS | 52 | 48 | 87 | 29.88 | 8 | NNW | |||
| Wilmington (ASOS) | DE | 2026-05-10 08:25 | ASOS | 59 | 52 | 77 | 29.93 | 0 | N | |||
| Wilmington (ASOS) | DE | 2026-05-10 07:40 | ASOS | 55 | 52 | 88 | 29.91 | |||||
| Wilmington (ASOS) | DE | 2026-05-10 07:05 | ASOS | 54 | 50 | 88 | 29.90 | 0 | N | |||
| Wilmington (ASOS) | DE | 2026-05-10 07:10 | ASOS | 54 | 52 | 94 | 29.90 | 0 | N | |||
| Wilmington (ASOS) | DE | 2026-05-10 07:15 | ASOS | 55 | 52 | 88 | 29.91 | 5 | NNW | |||
| Wilmington (ASOS) | DE | 2026-05-10 07:20 | ASOS | 55 | 52 | 88 | 29.91 | 7 | NNW | |||
| Wilmington (ASOS) | DE | 2026-05-10 07:25 | ASOS | 55 | 52 | 88 | 29.92 | 7 | NNW | |||
| Wilmington (ASOS) | DE | 2026-05-10 07:30 | ASOS | 55 | 52 | 88 | 29.92 | 5 | N | |||
| Wilmington (ASOS) | DE | 2026-05-10 07:35 | ASOS | 55 | 52 | 88 | 29.91 | 3 | ENE | |||
| Wilmington (ASOS) | DE | 2026-05-10 07:45 | ASOS | 55 | 52 | 88 | 29.91 | |||||
| Wilmington (ASOS) | DE | 2026-05-10 06:55 | ASOS | 54 | 50 | 88 | 29.90 | 6 | N | |||
| Wilmington (ASOS) | DE | 2026-05-10 07:50 | ASOS | 55 | 50 | 82 | 29.91 | |||||
| Wilmington (ASOS) | DE | 2026-05-10 07:51 | ASOS | 56 | 50 | 80 | 29.91 | |||||
| Wilmington (ASOS) | DE | 2026-05-10 07:55 | ASOS | 55 | 50 | 82 | 29.92 | |||||
| Wilmington (ASOS) | DE | 2026-05-10 08:00 | ASOS | 57 | 52 | 82 | 29.92 | 5 | SSE | |||
| Wilmington (ASOS) | DE | 2026-05-10 08:05 | ASOS | 57 | 50 | 77 | 29.92 | 0 | N | |||
| Wilmington (ASOS) | DE | 2026-05-10 08:15 | ASOS | 57 | 52 | 82 | 29.93 | 0 | N | |||
| Wilmington (ASOS) | DE | 2026-05-10 08:20 | ASOS | 59 | 50 | 72 | 29.93 | 0 | N | |||
| Wilmington (ASOS) | DE | 2026-05-10 07:00 | ASOS | 54 | 50 | 88 | 29.90 | 5 | NNW | |||
| Wilmington (ASOS) | DE | 2026-05-10 06:51 | ASOS | 53 | 50 | 89 | 29.90 | |||||
| Wilmington (ASOS) | DE | 2026-05-10 05:25 | ASOS | 52 | 48 | 87 | 29.87 | 6 | N | |||
| Wilmington (ASOS) | DE | 2026-05-10 06:00 | ASOS | 50 | 48 | 94 | 29.88 | |||||
| Wilmington (ASOS) | DE | 2026-05-10 05:30 | ASOS | 52 | 48 | 87 | 29.87 | 3 | N | |||
| Wilmington (ASOS) | DE | 2026-05-10 05:35 | ASOS | 52 | 48 | 87 | 29.88 | 6 | N | |||
| Wilmington (ASOS) | DE | 2026-05-10 05:40 | ASOS | 50 | 48 | 94 | 29.88 | 3 | N | |||
| Wilmington (ASOS) | DE | 2026-05-10 05:45 | ASOS | 52 | 48 | 87 | 29.88 | 5 | NNW | |||
| Wilmington (ASOS) | DE | 2026-05-10 05:50 | ASOS | 50 | 48 | 94 | 29.88 | 5 | N | |||
| Wilmington (ASOS) | DE | 2026-05-10 05:51 | ASOS | 50 | 47 | 89 | 29.88 | 5 | N | |||
| Wilmington (ASOS) | DE | 2026-05-10 05:55 | ASOS | 50 | 48 | 94 | 29.88 | 3 | NNW | |||
| Wilmington (ASOS) | DE | 2026-05-10 06:05 | ASOS | 52 | 48 | 87 | 29.88 | 0 | N | |||
| Wilmington (ASOS) | DE | 2026-05-10 06:50 | ASOS | 54 | 50 | 88 | 29.90 | |||||
| Wilmington (ASOS) | DE | 2026-05-10 06:10 | ASOS | 52 | 48 | 87 | 29.88 | 0 | N | |||
| Wilmington (ASOS) | DE | 2026-05-10 06:15 | ASOS | 51 | 49 | 92 | 29.88 | |||||
| Wilmington (ASOS) | DE | 2026-05-10 06:20 | ASOS | 52 | 48 | 87 | 29.88 | |||||
| Wilmington (ASOS) | DE | 2026-05-10 06:25 | ASOS | 52 | 48 | 87 | 29.88 | 0 | N | |||
| Wilmington (ASOS) | DE | 2026-05-10 06:30 | ASOS | 52 | 48 | 87 | 29.89 | 3 | N | |||
| Wilmington (ASOS) | DE | 2026-05-10 06:35 | ASOS | 52 | 48 | 87 | 29.89 | 6 | NNW | |||
| Wilmington (ASOS) | DE | 2026-05-10 06:40 | ASOS | 52 | 48 | 87 | 29.89 | 5 | NNW | |||
| Wilmington (ASOS) | DE | 2026-05-10 06:45 | ASOS | 54 | 50 | 88 | 29.90 | 6 | N | |||
| Wilmington (ASOS) | DE | 2026-05-10 15:10 | ASOS | 79 | 54 | 42 | 29.91 | 7 | NNW |
data collection created in 0.023579120635986 (queried in 0.005954) rendered in: 0.00031685829162598

